Aviation Digital Data Service (ADDS)

Output produced by METARs form (0233 UTC 25 January 2020)
found at http://www.aviationweather.gov/metar/data/
 
KGXY 250156Z AUTO 00000KT 10SM CLR 02/M03 A2995 RMK AO2 SLP179 T00171033 FZRANO